Time;durP1;ratioP1;P1;durP2;ratioP2;P2;SDS_P1;SDS_P2;PMS_P1;PMS_P2;Temp;Humidity;BMP_temperature;BMP_pressure;BME280_temperature;BME280_humidity;BME280_pressure;Samples;Min_cycle;Max_cycle;Signal;HPM_P1;HPM_P2
2023/08/14 00:01:03;;;;;;;15.80;9.93;;;20.40;99.90;;;;;;5071471;28;20413;-67
2023/08/14 00:03:29;;;;;;;16.57;10.20;;;20.40;99.90;;;;;;5053506;28;20875;-66
2023/08/14 00:05:54;;;;;;;15.53;9.37;;;20.40;99.90;;;;;;5071334;28;20701;-67
2023/08/14 00:08:20;;;;;;;11.80;10.00;;;20.40;99.90;;;;;;5071475;28;20207;-67
2023/08/14 00:10:45;;;;;;;13.43;10.47;;;20.30;99.90;;;;;;5071151;28;20190;-66
2023/08/14 00:13:12;;;;;;;15.40;11.40;;;20.40;99.90;;;;;;5053121;28;20208;-67
2023/08/14 00:15:38;;;;;;;14.10;11.63;;;20.30;99.90;;;;;;5071137;28;20675;-67
2023/08/14 00:18:04;;;;;;;18.73;11.10;;;20.30;99.90;;;;;;5071366;28;20468;-67
2023/08/14 00:20:30;;;;;;;18.70;11.67;;;20.30;99.90;;;;;;5071040;28;20975;-67
2023/08/14 00:22:55;;;;;;;12.97;10.70;;;20.20;99.90;;;;;;5071056;28;20446;-67
2023/08/14 00:25:22;;;;;;;12.70;9.53;;;20.20;99.90;;;;;;5070979;28;20277;-67
2023/08/14 00:27:47;;;;;;;11.27;9.37;;;20.20;99.90;;;;;;5071094;28;20670;-66
2023/08/14 00:30:13;;;;;;;10.77;9.67;;;20.20;99.90;;;;;;5070794;28;20531;-67
2023/08/14 00:32:39;;;;;;;11.57;7.37;;;20.20;99.90;;;;;;5070572;28;20207;-66
2023/08/14 00:35:05;;;;;;;16.23;8.17;;;20.20;99.90;;;;;;5070504;28;20202;-67
2023/08/14 00:37:49;;;;;;;13.33;9.40;;;20.30;99.90;;;;;;5052484;28;20202;-67
2023/08/14 00:40:16;;;;;;;10.80;8.73;;;20.30;99.90;;;;;;5070512;28;20413;-66
2023/08/14 00:42:47;;;;;;;10.07;8.43;;;20.30;99.90;;;;;;5070786;28;20441;-66
2023/08/14 00:45:13;;;;;;;12.10;8.00;;;20.30;99.90;;;;;;5053057;28;20445;-67
2023/08/14 00:47:41;;;;;;;12.53;8.17;;;20.30;99.90;;;;;;5070329;28;20464;-67
2023/08/14 00:50:07;;;;;;;9.73;7.63;;;20.40;99.90;;;;;;5070347;28;20232;-67
2023/08/14 00:52:36;;;;;;;10.03;8.87;;;20.40;99.90;;;;;;5070213;28;20437;-67
2023/08/14 00:55:07;;;;;;;13.33;7.63;;;20.40;99.90;;;;;;5070258;28;20468;-67
2023/08/14 00:57:33;;;;;;;15.60;9.07;;;20.40;99.90;;;;;;5070232;28;20414;-67
2023/08/14 01:00:01;;;;;;;12.20;8.80;;;20.30;99.90;;;;;;5070389;28;21056;-67
2023/08/14 01:02:27;;;;;;;14.30;8.40;;;20.40;99.90;;;;;;5051366;28;20443;-67
2023/08/14 01:04:53;;;;;;;10.77;7.30;;;20.40;99.90;;;;;;5070298;28;20460;-67
2023/08/14 01:07:19;;;;;;;13.53;8.50;;;20.50;99.90;;;;;;5070135;28;20445;-67
2023/08/14 01:09:46;;;;;;;10.00;7.93;;;20.60;99.90;;;;;;5070175;28;20230;-67
2023/08/14 01:12:54;;;;;;;12.93;7.80;;;20.70;99.90;;;;;;5070081;28;20206;-67
2023/08/14 01:15:26;;;;;;;11.27;7.63;;;20.80;99.90;;;;;;5069756;28;20456;-67
2023/08/14 01:17:56;;;;;;;10.03;7.80;;;20.90;99.90;;;;;;5070081;28;20410;-67
2023/08/14 01:20:25;;;;;;;10.13;7.50;;;21.00;99.90;;;;;;5070054;28;20420;-67
2023/08/14 01:22:55;;;;;;;10.20;7.50;;;21.10;99.90;;;;;;5069863;28;20429;-67
2023/08/14 01:25:25;;;;;;;12.00;8.43;;;21.20;99.90;;;;;;5051964;28;20426;-67
2023/08/14 01:27:51;;;;;;;11.37;7.43;;;21.30;99.90;;;;;;5069722;28;20422;-66
2023/08/14 01:30:17;;;;;;;13.70;7.97;;;21.30;99.90;;;;;;5069714;28;20454;-67
2023/08/14 01:32:43;;;;;;;13.57;8.30;;;21.40;99.90;;;;;;5069581;28;20486;-67
2023/08/14 01:35:09;;;;;;;14.67;7.53;;;21.50;99.90;;;;;;5069500;28;20464;-67
2023/08/14 01:37:44;;;;;;;8.53;7.73;;;21.50;99.90;;;;;;5051616;28;20182;-67
2023/08/14 01:40:35;;;;;;;11.10;7.30;;;21.50;99.90;;;;;;5069518;28;20446;-67
2023/08/14 01:43:08;;;;;;;8.90;8.03;;;21.30;99.90;;;;;;5069835;28;20434;-67
2023/08/14 01:45:35;;;;;;;9.57;8.50;;;21.20;99.90;;;;;;5069504;28;20425;-67
2023/08/14 01:48:02;;;;;;;16.03;9.00;;;21.10;99.90;;;;;;5069514;28;20423;-67
2023/08/14 01:50:29;;;;;;;16.63;7.70;;;21.00;99.90;;;;;;5069277;28;20445;-68
2023/08/14 01:52:56;;;;;;;10.40;6.77;;;21.10;99.90;;;;;;5069311;28;20461;-68
2023/08/14 01:55:24;;;;;;;9.17;6.27;;;21.10;99.90;;;;;;5069127;28;20488;-68
2023/08/14 01:57:53;;;;;;;6.63;3.70;;;21.00;99.90;;;;;;5069391;28;20424;-68
2023/08/14 02:00:20;;;;;;;4.77;3.80;;;20.70;99.90;;;;;;5069293;28;21067;-68
2023/08/14 02:02:46;;;;;;;4.63;3.50;;;20.50;99.90;;;;;;5069352;28;20434;-69
2023/08/14 02:05:11;;;;;;;5.57;3.33;;;20.10;99.90;;;;;;5069481;28;20421;-68
2023/08/14 02:07:37;;;;;;;4.70;3.37;;;20.00;99.90;;;;;;5069577;28;20443;-68
2023/08/14 02:10:03;;;;;;;4.20;3.67;;;19.90;99.90;;;;;;5069812;28;20197;-67
2023/08/14 02:12:30;;;;;;;4.87;3.40;;;19.80;99.90;;;;;;5069707;28;20257;-67
2023/08/14 02:14:56;;;;;;;3.73;3.00;;;19.80;99.90;;;;;;5068541;28;20460;-67
2023/08/14 02:17:22;;;;;;;9.23;3.30;;;19.70;99.90;;;;;;5069581;28;20409;-67
2023/08/14 02:19:48;;;;;;;6.07;3.57;;;19.70;99.90;;;;;;5069717;28;20485;-67
2023/08/14 02:22:13;;;;;;;6.37;3.40;;;19.60;99.90;;;;;;5069599;28;20469;-67
2023/08/14 02:24:39;;;;;;;7.33;3.53;;;19.50;99.90;;;;;;5069706;28;20876;-67
2023/08/14 02:27:05;;;;;;;6.77;4.50;;;19.50;99.90;;;;;;5069663;28;20183;-67
2023/08/14 02:29:30;;;;;;;4.20;3.70;;;19.50;99.90;;;;;;5069557;28;20266;-67
2023/08/14 02:31:56;;;;;;;5.23;4.00;;;19.50;99.90;;;;;;5069587;28;20655;-68
2023/08/14 02:34:44;;;;;;;5.00;3.63;;;19.50;99.90;;;;;;5069558;28;20197;-67
2023/08/14 02:37:11;;;;;;;7.20;4.10;;;19.50;99.90;;;;;;5069322;28;20657;-67
2023/08/14 02:39:37;;;;;;;8.40;4.17;;;19.60;99.90;;;;;;5069077;28;20413;-67
2023/08/14 02:42:03;;;;;;;5.93;4.17;;;19.60;99.90;;;;;;5068934;28;20447;-67
2023/08/14 02:44:29;;;;;;;5.73;4.20;;;19.70;99.90;;;;;;5068976;28;20178;-67
2023/08/14 02:46:56;;;;;;;4.43;4.03;;;19.70;99.90;;;;;;5068951;28;20232;-67
2023/08/14 02:49:21;;;;;;;8.20;4.13;;;19.70;99.90;;;;;;5050632;28;20309;-67
2023/08/14 02:51:47;;;;;;;6.13;3.93;;;19.70;99.90;;;;;;5068699;28;20524;-67
2023/08/14 02:54:13;;;;;;;9.20;4.00;;;19.80;99.90;;;;;;5068572;28;20190;-67
2023/08/14 02:56:38;;;;;;;8.50;3.07;;;19.80;99.90;;;;;;5068641;28;20210;-67
2023/08/14 02:59:04;;;;;;;5.27;3.87;;;19.80;99.90;;;;;;5068575;28;20764;-67
2023/08/14 03:01:29;;;;;;;6.23;4.10;;;19.80;99.90;;;;;;5068653;28;20203;-68
2023/08/14 03:03:55;;;;;;;6.00;4.00;;;19.70;99.90;;;;;;5068434;28;20256;-68
2023/08/14 03:06:21;;;;;;;5.27;4.53;;;19.70;99.90;;;;;;5068506;28;20185;-68
2023/08/14 03:08:49;;;;;;;5.90;4.80;;;19.70;99.90;;;;;;5068278;28;20187;-68
2023/08/14 03:11:14;;;;;;;8.23;4.50;;;19.70;99.90;;;;;;5068310;28;20233;-67
2023/08/14 03:13:40;;;;;;;8.27;5.20;;;19.70;99.90;;;;;;5050060;28;20461;-68
2023/08/14 03:16:06;;;;;;;7.07;5.10;;;19.70;99.90;;;;;;5068213;28;20206;-68
2023/08/14 03:18:31;;;;;;;6.53;5.60;;;19.80;99.90;;;;;;5068227;28;20190;-67
2023/08/14 03:20:57;;;;;;;5.33;4.83;;;19.80;99.90;;;;;;5068218;28;20195;-68
2023/08/14 03:23:23;;;;;;;5.40;4.73;;;19.80;99.90;;;;;;5068206;28;20195;-68
2023/08/14 03:25:48;;;;;;;4.70;4.30;;;19.80;99.90;;;;;;5051659;28;20365;-68
2023/08/14 03:28:14;;;;;;;5.57;3.97;;;19.90;99.90;;;;;;5072188;28;20252;-68
2023/08/14 03:30:41;;;;;;;5.93;4.53;;;19.80;99.90;;;;;;5072093;28;20201;-68
2023/08/14 03:33:06;;;;;;;4.40;3.80;;;19.70;99.90;;;;;;5071958;28;20275;-68
2023/08/14 03:35:32;;;;;;;6.40;4.40;;;19.60;99.90;;;;;;5071949;28;20467;-68
2023/08/14 03:37:58;;;;;;;4.47;4.03;;;19.60;99.90;;;;;;5071777;28;20197;-68
2023/08/14 03:40:23;;;;;;;5.10;4.60;;;19.60;99.90;;;;;;5071867;28;20337;-68
2023/08/14 03:42:49;;;;;;;7.00;4.63;;;19.60;99.90;;;;;;5072159;28;20230;-69
2023/08/14 03:45:14;;;;;;;10.70;5.07;;;19.60;99.90;;;;;;5054594;28;20202;-69
2023/08/14 03:47:40;;;;;;;7.80;4.60;;;19.60;99.90;;;;;;5054569;28;20239;-68
2023/08/14 03:50:06;;;;;;;4.10;3.80;;;19.50;99.90;;;;;;5054342;28;20581;-68
2023/08/14 03:52:32;;;;;;;5.83;3.80;;;19.50;99.90;;;;;;5072396;28;20232;-68
2023/08/14 03:54:57;;;;;;;4.27;3.87;;;19.40;99.90;;;;;;5072251;28;20965;-69
2023/08/14 03:57:23;;;;;;;5.27;4.10;;;19.50;99.90;;;;;;5072310;28;20198;-69
2023/08/14 03:59:49;;;;;;;4.23;3.63;;;19.50;99.90;;;;;;5072389;28;20214;-68
2023/08/14 04:02:14;;;;;;;5.43;4.27;;;19.50;99.90;;;;;;5072187;28;20222;-68
2023/08/14 04:04:40;;;;;;;4.40;3.87;;;19.40;99.90;;;;;;5072175;28;20313;-69
2023/08/14 04:07:05;;;;;;;5.93;4.13;;;19.50;99.90;;;;;;5072120;28;20197;-68
2023/08/14 04:09:31;;;;;;;3.73;3.43;;;19.50;99.90;;;;;;5072075;28;20285;-69
2023/08/14 04:11:57;;;;;;;7.07;4.80;;;19.50;99.90;;;;;;5070801;28;20361;-69
2023/08/14 04:14:23;;;;;;;7.03;3.93;;;19.40;99.90;;;;;;5070449;28;20235;-68
2023/08/14 04:16:49;;;;;;;5.60;4.30;;;19.30;99.90;;;;;;5070375;28;20432;-68
2023/08/14 04:19:17;;;;;;;6.90;4.83;;;19.30;99.90;;;;;;5069700;28;20415;-69
2023/08/14 04:21:43;;;;;;;7.77;4.77;;;19.30;99.90;;;;;;5069299;28;20441;-68
2023/08/14 04:24:09;;;;;;;6.27;3.90;;;19.30;99.90;;;;;;5069814;28;20429;-68
2023/08/14 04:26:39;;;;;;;5.00;4.27;;;19.20;99.90;;;;;;5069686;28;20421;-68
2023/08/14 04:29:06;;;;;;;10.63;4.53;;;19.30;99.90;;;;;;5051833;28;20612;-68
2023/08/14 04:31:36;;;;;;;10.83;5.30;;;19.20;99.90;;;;;;5069192;28;20465;-68
2023/08/14 04:34:02;;;;;;;8.33;5.00;;;19.20;99.90;;;;;;5069350;28;20425;-68
2023/08/14 04:36:35;;;;;;;5.53;4.67;;;19.10;99.90;;;;;;5068852;28;20592;-68
2023/08/14 04:39:03;;;;;;;11.83;4.87;;;19.10;99.90;;;;;;5069149;28;20428;-68
2023/08/14 04:41:29;;;;;;;7.53;5.40;;;19.10;99.90;;;;;;5069240;28;20460;-69
2023/08/14 04:43:54;;;;;;;14.13;5.70;;;19.10;99.90;;;;;;5069536;28;20920;-69
2023/08/14 04:46:31;;;;;;;8.87;5.33;;;19.10;99.90;;;;;;5069510;28;20182;-69
2023/08/14 04:48:57;;;;;;;7.40;5.30;;;19.00;99.90;;;;;;5069744;28;20533;-68
2023/08/14 04:51:23;;;;;;;7.03;5.30;;;19.10;99.90;;;;;;5069628;28;20520;-69
2023/08/14 04:53:48;;;;;;;7.67;4.67;;;19.10;99.90;;;;;;5070099;28;20981;-68
2023/08/14 04:56:14;;;;;;;6.17;5.27;;;19.10;99.90;;;;;;5051280;28;20225;-68
2023/08/14 04:58:40;;;;;;;11.73;5.37;;;19.10;99.90;;;;;;5051077;28;20231;-68
2023/08/14 05:01:05;;;;;;;7.63;6.07;;;19.10;99.90;;;;;;5068870;28;20637;-67
2023/08/14 05:03:31;;;;;;;5.50;5.00;;;19.10;99.90;;;;;;5068848;28;20184;-68
2023/08/14 05:05:56;;;;;;;9.50;5.43;;;19.20;99.90;;;;;;5050546;28;20299;-68
2023/08/14 05:08:22;;;;;;;7.10;5.90;;;19.20;99.90;;;;;;5068563;28;20191;-68
2023/08/14 05:10:51;;;;;;;5.10;4.47;;;19.20;99.90;;;;;;5068649;28;20227;-68
2023/08/14 05:13:18;;;;;;;11.30;5.33;;;19.30;99.90;;;;;;5068385;28;20688;-68
2023/08/14 05:15:46;;;;;;;7.03;5.70;;;19.30;99.90;;;;;;5068325;28;20923;-68
2023/08/14 05:18:12;;;;;;;10.20;6.00;;;19.30;99.90;;;;;;5068680;28;20547;-69
2023/08/14 05:20:38;;;;;;;6.87;5.60;;;19.30;99.90;;;;;;5068393;28;20447;-68
2023/08/14 05:23:03;;;;;;;5.87;5.27;;;19.30;99.90;;;;;;5068185;28;20203;-68
2023/08/14 05:25:29;;;;;;;5.90;5.40;;;19.20;99.90;;;;;;5068321;28;20893;-68
2023/08/14 05:27:54;;;;;;;11.60;6.13;;;19.20;99.90;;;;;;5068064;28;20194;-68
2023/08/14 05:30:20;;;;;;;10.80;5.13;;;19.20;99.90;;;;;;5067910;28;20210;-68
2023/08/14 05:32:47;;;;;;;7.97;4.03;;;19.10;99.90;;;;;;5067986;28;20210;-68
2023/08/14 05:35:15;;;;;;;4.80;4.40;;;19.10;99.90;;;;;;5067915;28;20207;-70
2023/08/14 05:37:41;;;;;;;8.03;3.80;;;19.10;99.90;;;;;;5067857;28;20421;-70
2023/08/14 05:40:07;;;;;;;6.70;4.57;;;19.10;99.90;;;;;;5067898;28;20414;-70
2023/08/14 05:42:33;;;;;;;6.10;4.97;;;19.20;99.90;;;;;;5067813;28;20199;-70
2023/08/14 05:44:58;;;;;;;17.07;4.90;;;19.30;99.90;;;;;;5067683;28;20916;-70
2023/08/14 05:47:24;;;;;;;9.77;4.63;;;19.40;99.90;;;;;;5067615;28;20198;-70
2023/08/14 05:49:49;;;;;;;12.90;4.90;;;19.50;99.90;;;;;;5067535;28;20293;-70
2023/08/14 05:52:15;;;;;;;8.27;5.10;;;19.70;99.90;;;;;;5067530;28;20240;-70
2023/08/14 05:54:41;;;;;;;7.30;4.27;;;19.70;99.90;;;;;;5067706;28;20296;-70
2023/08/14 05:57:06;;;;;;;6.00;4.30;;;19.80;99.90;;;;;;5067695;28;20187;-70
2023/08/14 05:59:32;;;;;;;10.33;5.13;;;19.80;99.90;;;;;;5067991;28;20276;-70
2023/08/14 06:01:58;;;;;;;5.60;4.50;;;19.90;99.90;;;;;;5067303;28;20225;-70
2023/08/14 06:04:25;;;;;;;4.20;3.80;;;20.00;99.90;;;;;;5067429;28;20414;-70
2023/08/14 06:06:51;;;;;;;5.93;4.27;;;20.10;99.90;;;;;;5067591;28;20187;-70
2023/08/14 06:09:17;;;;;;;10.00;4.63;;;20.30;99.90;;;;;;5067550;28;20420;-70
2023/08/14 06:11:43;;;;;;;4.03;3.63;;;20.30;99.90;;;;;;5067579;28;20272;-71
2023/08/14 06:14:09;;;;;;;4.23;3.80;;;20.30;99.90;;;;;;5067815;28;20928;-71
2023/08/14 06:16:34;;;;;;;7.50;3.93;;;20.40;99.90;;;;;;5067710;28;20640;-71
2023/08/14 06:19:00;;;;;;;4.37;3.97;;;20.60;99.90;;;;;;5068007;28;20233;-71
2023/08/14 06:21:26;;;;;;;7.10;4.40;;;20.90;99.90;;;;;;5068026;28;20203;-71
2023/08/14 06:23:51;;;;;;;6.40;4.03;;;21.10;99.90;;;;;;5067607;28;20179;-71
2023/08/14 06:26:17;;;;;;;4.87;3.40;;;21.20;99.90;;;;;;5067976;28;20194;-71
2023/08/14 06:28:42;;;;;;;6.10;3.73;;;21.20;99.90;;;;;;5067179;28;20191;-70
2023/08/14 06:31:09;;;;;;;5.60;4.10;;;21.40;99.90;;;;;;5066966;28;20276;-70
2023/08/14 06:33:34;;;;;;;4.40;3.60;;;21.50;99.90;;;;;;5067068;28;20183;-70
2023/08/14 06:36:00;;;;;;;10.70;3.53;;;21.60;99.90;;;;;;5067081;28;20531;-70
2023/08/14 06:38:26;;;;;;;6.33;3.97;;;21.60;99.90;;;;;;5066856;28;20183;-70
2023/08/14 06:40:51;;;;;;;5.83;3.90;;;21.70;99.90;;;;;;5066995;28;20709;-70
2023/08/14 06:43:17;;;;;;;5.20;3.40;;;21.80;99.90;;;;;;5066818;28;20286;-70
2023/08/14 06:45:45;;;;;;;3.97;3.40;;;21.80;99.90;;;;;;5066705;28;20581;-69
2023/08/14 06:48:11;;;;;;;6.27;3.60;;;21.80;99.90;;;;;;5048568;28;20183;-70
2023/08/14 06:50:36;;;;;;;6.80;4.10;;;21.80;99.90;;;;;;5066720;28;20432;-70
2023/08/14 06:53:02;;;;;;;4.90;3.70;;;21.80;99.90;;;;;;5066695;28;20238;-70
2023/08/14 06:55:27;;;;;;;7.50;3.90;;;21.80;99.90;;;;;;5066597;28;20216;-70
2023/08/14 06:57:53;;;;;;;7.80;4.30;;;21.80;99.90;;;;;;5048552;28;20179;-71
2023/08/14 07:00:19;;;;;;;4.20;3.80;;;21.80;99.90;;;;;;5066026;28;20615;-71
2023/08/14 07:02:46;;;;;;;5.03;3.47;;;21.70;99.90;;;;;;5048570;28;20219;-71
2023/08/14 07:05:12;;;;;;;10.30;4.17;;;21.70;99.90;;;;;;5066608;28;20180;-71
2023/08/14 07:07:38;;;;;;;5.23;3.57;;;21.70;99.90;;;;;;5066623;28;20420;-71
2023/08/14 07:10:04;;;;;;;3.30;3.00;;;21.80;99.90;;;;;;5066742;28;20197;-70
2023/08/14 07:12:30;;;;;;;4.07;3.33;;;21.80;99.90;;;;;;5066556;28;20450;-70
2023/08/14 07:14:55;;;;;;;6.50;3.90;;;21.80;99.90;;;;;;5066619;28;20477;-70
2023/08/14 07:17:21;;;;;;;11.33;3.80;;;21.90;99.90;;;;;;5066584;28;20861;-71
2023/08/14 07:19:47;;;;;;;10.47;3.23;;;22.00;99.90;;;;;;5066880;28;20222;-70
2023/08/14 07:22:12;;;;;;;6.97;3.80;;;22.00;99.90;;;;;;5048026;28;20219;-71
2023/08/14 07:24:38;;;;;;;3.97;3.67;;;22.00;99.90;;;;;;5048244;28;20188;-72
2023/08/14 07:27:04;;;;;;;5.20;3.60;;;22.20;99.90;;;;;;5066445;28;20672;-70
2023/08/14 07:29:29;;;;;;;7.97;3.43;;;22.10;99.90;;;;;;5066367;28;20425;-71
2023/08/14 07:31:55;;;;;;;5.20;3.53;;;22.10;99.90;;;;;;5066335;28;20215;-71
2023/08/14 07:34:21;;;;;;;8.90;3.73;;;22.10;99.90;;;;;;5066376;28;20196;-71
2023/08/14 07:36:46;;;;;;;4.60;3.17;;;22.20;99.90;;;;;;5066292;28;20215;-71
2023/08/14 07:39:12;;;;;;;3.90;2.80;;;22.20;99.90;;;;;;5066377;28;20183;-71
2023/08/14 07:41:37;;;;;;;7.80;3.53;;;22.30;99.90;;;;;;5066401;28;20691;-71
2023/08/14 07:44:03;;;;;;;7.33;3.73;;;22.30;99.90;;;;;;5066344;28;20225;-71
2023/08/14 07:46:29;;;;;;;3.97;2.70;;;22.40;99.90;;;;;;5066495;28;20194;-72
2023/08/14 07:48:54;;;;;;;3.13;2.93;;;22.50;99.90;;;;;;5066673;28;20193;-71
2023/08/14 07:51:20;;;;;;;3.77;3.40;;;22.60;99.90;;;;;;5048362;28;20216;-73
2023/08/14 07:53:46;;;;;;;3.67;2.40;;;22.80;99.90;;;;;;5066415;28;20267;-71
2023/08/14 07:56:11;;;;;;;2.87;2.57;;;22.90;99.90;;;;;;5066023;28;20223;-71
2023/08/14 07:58:39;;;;;;;2.53;2.33;;;23.00;99.90;;;;;;5066146;28;20188;-71
2023/08/14 08:01:05;;;;;;;3.37;2.97;;;23.10;99.90;;;;;;5048589;28;20730;-71
2023/08/14 08:03:31;;;;;;;3.30;3.00;;;23.20;99.90;;;;;;5066217;28;20420;-71
2023/08/14 08:05:56;;;;;;;3.10;2.70;;;23.30;99.90;;;;;;5066184;28;20185;-71
2023/08/14 08:08:22;;;;;;;4.23;2.87;;;23.40;99.90;;;;;;5065986;28;20218;-71
2023/08/14 08:10:47;;;;;;;4.90;3.13;;;23.50;99.90;;;;;;5066055;28;20506;-71
2023/08/14 08:13:13;;;;;;;5.43;3.20;;;23.60;99.90;;;;;;5068150;28;20513;-71
2023/08/14 08:15:39;;;;;;;3.63;3.27;;;23.70;99.90;;;;;;5051388;28;20267;-71
2023/08/14 08:18:04;;;;;;;2.97;2.70;;;23.80;99.90;;;;;;5069551;28;20193;-71
2023/08/14 08:20:30;;;;;;;6.77;2.40;;;23.90;99.90;;;;;;5069949;28;20193;-71
2023/08/14 08:22:55;;;;;;;3.73;3.30;;;24.00;99.90;;;;;;5069511;28;20208;-71
2023/08/14 08:25:21;;;;;;;3.93;2.80;;;24.10;99.90;;;;;;5069527;28;20267;-71
2023/08/14 08:27:47;;;;;;;3.60;3.30;;;24.20;99.90;;;;;;5069736;28;20274;-72
2023/08/14 08:30:13;;;;;;;3.20;2.57;;;24.30;99.90;;;;;;5069337;28;20230;-71
2023/08/14 08:32:38;;;;;;;5.93;3.03;;;24.40;99.90;;;;;;5069388;28;20208;-72
2023/08/14 08:35:04;;;;;;;3.33;2.93;;;24.50;99.90;;;;;;5069343;28;20218;-71
2023/08/14 08:37:30;;;;;;;4.40;3.17;;;24.70;99.90;;;;;;5069404;28;20433;-71
2023/08/14 08:39:55;;;;;;;3.47;3.13;;;24.90;99.90;;;;;;5069510;28;20268;-70
2023/08/14 08:42:22;;;;;;;3.27;2.90;;;25.00;99.90;;;;;;5069723;28;20199;-71
2023/08/14 08:44:49;;;;;;;5.53;3.10;;;25.20;99.90;;;;;;5070071;28;20711;-69
2023/08/14 08:47:18;;;;;;;3.73;2.90;;;25.30;99.90;;;;;;5070021;28;20474;-69
2023/08/14 08:49:44;;;;;;;4.40;2.80;;;25.40;99.90;;;;;;5069792;28;20421;-69
2023/08/14 08:52:11;;;;;;;8.57;3.07;;;25.60;99.90;;;;;;5051665;28;20429;-69
2023/08/14 08:54:40;;;;;;;2.93;2.60;;;25.80;99.90;;;;;;5069516;28;20268;-69
2023/08/14 08:57:06;;;;;;;4.50;3.63;;;25.90;99.90;;;;;;5069576;28;20443;-69
2023/08/14 08:59:33;;;;;;;3.80;3.10;;;26.00;99.90;;;;;;5069754;28;20432;-69
2023/08/14 09:01:58;;;;;;;4.60;2.40;;;26.10;99.90;;;;;;5069242;28;20441;-69
2023/08/14 09:04:24;;;;;;;3.30;3.00;;;26.30;99.90;;;;;;5069356;28;20479;-69
2023/08/14 09:06:50;;;;;;;3.13;2.70;;;26.50;99.90;;;;;;5051179;28;20253;-69
2023/08/14 09:09:16;;;;;;;5.93;3.00;;;26.60;99.90;;;;;;5069364;28;20212;-68
2023/08/14 09:11:42;;;;;;;5.33;3.37;;;26.90;99.90;;;;;;5051161;28;20242;-69
2023/08/14 09:14:09;;;;;;;3.53;3.20;;;27.00;99.90;;;;;;5069495;28;20491;-70
2023/08/14 09:16:35;;;;;;;3.23;2.50;;;27.20;99.90;;;;;;5069244;28;20221;-70
2023/08/14 09:19:00;;;;;;;9.50;3.40;;;27.50;99.90;;;;;;5069449;28;20425;-69
2023/08/14 09:21:27;;;;;;;4.60;3.17;;;27.80;99.90;;;;;;5069283;28;20229;-68
2023/08/14 09:23:54;;;;;;;5.53;3.00;;;28.10;99.90;;;;;;5068965;28;20179;-68
2023/08/14 09:26:20;;;;;;;2.87;2.67;;;28.50;99.90;;;;;;5069367;28;20429;-72
2023/08/14 09:28:46;;;;;;;3.10;2.67;;;28.80;99.90;;;;;;5069533;28;20487;-70
2023/08/14 09:31:13;;;;;;;3.03;2.83;;;29.10;99.90;;;;;;5069468;28;20469;-71
2023/08/14 09:33:39;;;;;;;5.13;2.70;;;29.40;99.90;;;;;;5069707;28;20451;-71
2023/08/14 09:36:06;;;;;;;3.60;3.00;;;29.40;99.90;;;;;;5069649;28;20465;-71
2023/08/14 09:38:32;;;;;;;4.80;2.90;;;29.60;99.90;;;;;;5069945;28;21083;-71
2023/08/14 09:40:58;;;;;;;3.90;3.17;;;29.80;99.90;;;;;;5069700;28;20414;-71
2023/08/14 09:43:24;;;;;;;3.33;2.77;;;30.10;99.90;;;;;;5069882;28;20206;-71
2023/08/14 09:45:55;;;;;;;3.10;2.50;;;30.00;99.90;;;;;;5051799;28;20928;-71
2023/08/14 09:48:22;;;;;;;3.60;2.80;;;30.10;99.90;;;;;;5069679;28;20508;-71
2023/08/14 09:50:49;;;;;;;2.67;2.10;;;30.40;99.90;;;;;;5069676;28;20430;-71
2023/08/14 09:53:15;;;;;;;3.33;2.50;;;30.70;99.90;;;;;;5069593;28;20526;-71
2023/08/14 09:55:42;;;;;;;4.47;2.73;;;30.90;99.90;;;;;;5069421;28;20463;-71
2023/08/14 09:58:08;;;;;;;2.97;2.20;;;31.20;99.90;;;;;;5069238;28;20414;-71
2023/08/14 10:00:36;;;;;;;4.00;2.60;;;31.30;99.90;;;;;;5069002;28;20471;-69
2023/08/14 10:03:03;;;;;;;2.87;2.17;;;31.50;99.90;;;;;;5068999;28;20199;-72
2023/08/14 10:05:29;;;;;;;2.50;2.30;;;31.60;99.90;;;;;;5068886;28;20999;-71
2023/08/14 10:07:57;;;;;;;5.93;2.70;;;31.60;99.90;;;;;;5068717;28;20432;-70
2023/08/14 10:10:24;;;;;;;2.90;2.70;;;31.80;99.90;;;;;;5068472;28;20425;-71
2023/08/14 10:12:56;;;;;;;4.80;2.40;;;31.70;99.90;;;;;;5068258;28;20453;-73
2023/08/14 10:15:27;;;;;;;2.87;2.60;;;32.00;99.90;;;;;;5068171;28;21330;-72
2023/08/14 10:17:58;;;;;;;3.63;2.43;;;32.00;99.90;;;;;;5068162;28;20487;-70
2023/08/14 10:20:27;;;;;;;7.37;2.50;;;32.00;99.90;;;;;;5068159;28;20429;-71
2023/08/14 10:22:53;;;;;;;6.47;2.80;;;32.30;99.90;;;;;;5068086;28;20437;-71
2023/08/14 10:25:20;;;;;;;5.90;2.83;;;32.60;99.90;;;;;;5068093;28;20483;-71
2023/08/14 10:27:46;;;;;;;2.83;2.63;;;32.80;99.90;;;;;;5067943;28;20206;-72
2023/08/14 10:30:13;;;;;;;9.13;2.70;;;32.90;99.90;;;;;;5067973;28;20452;-71
2023/08/14 10:32:40;;;;;;;2.80;2.60;;;32.90;99.90;;;;;;5068136;28;21054;-72
2023/08/14 10:35:07;;;;;;;3.20;2.10;;;33.20;99.90;;;;;;5067273;28;20468;-72
2023/08/14 10:37:47;;;;;;;3.07;2.33;;;33.40;99.90;;;;;;5068148;28;20510;-72
2023/08/14 10:40:21;;;;;;;5.93;3.00;;;33.60;99.90;;;;;;5049780;28;20815;-70
2023/08/14 10:42:51;;;;;;;3.00;2.53;;;33.60;99.90;;;;;;5068031;28;20445;-71
2023/08/14 10:45:21;;;;;;;3.57;2.77;;;33.70;99.90;;;;;;5068163;28;20500;-74
2023/08/14 10:47:47;;;;;;;2.70;2.50;;;33.80;99.90;;;;;;5068069;28;20432;-70
2023/08/14 10:50:19;;;;;;;3.13;2.80;;;33.90;99.90;;;;;;5049839;28;20425;-72
2023/08/14 10:52:48;;;;;;;3.20;2.90;;;33.50;99.90;;;;;;5067643;28;20301;-70
2023/08/14 10:55:16;;;;;;;4.40;3.00;;;32.90;99.90;;;;;;5067729;28;20464;-71
2023/08/14 10:57:41;;;;;;;3.10;2.87;;;33.30;99.90;;;;;;5049354;28;20463;-70
2023/08/14 11:00:22;;;;;;;3.53;2.40;;;33.60;99.90;;;;;;5032899;28;20754;-71
2023/08/14 11:03:07;;;;;;;2.90;2.70;;;33.90;99.90;;;;;;5067578;28;20207;-71
2023/08/14 11:05:40;;;;;;;5.30;3.30;;;34.00;99.90;;;;;;5067500;28;20416;-71
2023/08/14 11:08:07;;;;;;;8.07;3.63;;;33.70;99.90;;;;;;5067203;28;20425;-71
2023/08/14 11:10:36;;;;;;;5.03;2.50;;;33.10;99.90;;;;;;5067496;28;20578;-71
2023/08/14 11:13:06;;;;;;;6.20;3.03;;;33.40;99.90;;;;;;5067541;28;20444;-71
2023/08/14 11:15:34;;;;;;;3.50;2.50;;;33.70;99.90;;;;;;5049744;28;20472;-70
2023/08/14 11:18:01;;;;;;;3.57;3.00;;;34.20;99.90;;;;;;5067430;28;20923;-70
2023/08/14 11:20:27;;;;;;;7.00;2.67;;;34.40;99.90;;;;;;5067552;28;20414;-71
2023/08/14 11:22:54;;;;;;;3.67;2.87;;;34.40;99.90;;;;;;5067704;28;20445;-70
2023/08/14 11:25:20;;;;;;;3.33;3.03;;;34.40;99.90;;;;;;5067634;28;20570;-70
2023/08/14 11:27:49;;;;;;;2.70;2.50;;;34.30;99.90;;;;;;5067518;28;20459;-70
2023/08/14 11:30:15;;;;;;;4.40;2.93;;;34.50;99.90;;;;;;5067447;28;20445;-71
2023/08/14 11:32:41;;;;;;;4.30;3.30;;;34.50;99.90;;;;;;5067069;28;20456;-71
2023/08/14 11:35:08;;;;;;;3.10;2.90;;;34.10;99.90;;;;;;5067037;28;20469;-71
2023/08/14 11:37:34;;;;;;;5.80;3.60;;;33.20;99.90;;;;;;5067175;28;20187;-71
2023/08/14 11:40:07;;;;;;;3.80;3.27;;;32.80;99.90;;;;;;5048788;28;20811;-70
2023/08/14 11:42:34;;;;;;;2.63;2.43;;;32.60;99.90;;;;;;5067199;28;20290;-70
2023/08/14 11:45:04;;;;;;;4.60;2.90;;;32.60;97.70;;;;;;5067140;28;20554;-70
2023/08/14 11:47:36;;;;;;;3.47;3.17;;;32.60;98.90;;;;;;5070201;28;20520;-69
2023/08/14 11:50:08;;;;;;;4.20;2.80;;;33.10;99.60;;;;;;5071158;28;20508;-69
2023/08/14 11:52:35;;;;;;;4.00;3.07;;;33.70;99.00;;;;;;5070769;28;20547;-71
2023/08/14 11:55:02;;;;;;;3.90;2.90;;;33.80;99.80;;;;;;5070839;28;20491;-71
2023/08/14 11:57:30;;;;;;;3.70;3.40;;;33.90;99.90;;;;;;5070281;28;20417;-72
2023/08/14 11:59:57;;;;;;;5.07;3.10;;;33.60;97.00;;;;;;5070073;28;20411;-71
2023/08/14 12:02:24;;;;;;;5.27;3.27;;;33.10;95.90;;;;;;5069692;28;20437;-71
2023/08/14 12:04:54;;;;;;;3.87;3.60;;;32.30;99.10;;;;;;5069881;28;20468;-70
2023/08/14 12:07:20;;;;;;;3.83;3.20;;;32.00;97.70;;;;;;5069752;28;20417;-71
2023/08/14 12:09:47;;;;;;;5.57;3.07;;;31.60;97.20;;;;;;5051821;28;20535;-71
2023/08/14 12:12:13;;;;;;;5.60;3.30;;;31.40;99.30;;;;;;5051946;28;20437;-72
2023/08/14 12:14:47;;;;;;;3.20;2.90;;;31.10;94.00;;;;;;5070321;28;20428;-71
2023/08/14 12:17:16;;;;;;;4.07;3.30;;;30.80;98.10;;;;;;5070340;28;20880;-70
2023/08/14 12:19:42;;;;;;;4.67;3.20;;;30.60;98.50;;;;;;5070131;28;20460;-71
2023/08/14 12:22:08;;;;;;;4.43;3.77;;;30.40;98.20;;;;;;5069694;28;20475;-70
2023/08/14 12:24:41;;;;;;;6.37;3.33;;;30.20;99.90;;;;;;5069821;28;20602;-68
2023/08/14 12:27:42;;;;;;;8.07;3.37;;;30.00;99.90;;;;;;5069489;28;20476;-68
2023/08/14 12:30:10;;;;;;;3.03;2.83;;;29.80;99.90;;;;;;4967973;28;20465;-69
2023/08/14 12:32:36;;;;;;;5.53;3.50;;;29.60;99.90;;;;;;5049660;28;20461;-69
2023/08/14 12:35:02;;;;;;;3.53;3.23;;;29.40;99.90;;;;;;5051022;28;20464;-69
2023/08/14 12:37:27;;;;;;;3.57;3.27;;;29.30;99.90;;;;;;5069187;28;20919;-69
2023/08/14 12:39:55;;;;;;;3.80;3.50;;;29.20;99.90;;;;;;5069407;28;20179;-69
2023/08/14 12:42:21;;;;;;;4.53;3.50;;;29.00;99.90;;;;;;5069070;28;20248;-69
2023/08/14 12:44:47;;;;;;;3.87;3.30;;;28.90;99.90;;;;;;5069196;28;20429;-68